Time;durP1;ratioP1;P1;durP2;ratioP2;P2;SDS_P1;SDS_P2;PMS_P1;PMS_P2;Temp;Humidity;BMP_temperature;BMP_pressure;BME280_temperature;BME280_humidity;BME280_pressure;Samples;Min_cycle;Max_cycle;Signal;HPM_P1;HPM_P2
2022/07/01 00:00:13;;;;;;;1.40;1.30;;;26.00;71.20;;;;;;5033342;28;20447;-82
2022/07/01 00:02:42;;;;;;;1.17;1.07;;;26.00;71.20;;;;;;5032503;28;20445;-82
2022/07/01 00:05:09;;;;;;;1.20;1.10;;;26.00;71.20;;;;;;5033318;28;20954;-82
2022/07/01 00:07:36;;;;;;;1.10;1.00;;;25.90;71.10;;;;;;5033119;28;20463;-82
2022/07/01 00:10:04;;;;;;;1.30;1.20;;;26.00;71.20;;;;;;5033069;28;20534;-82
2022/07/01 00:12:31;;;;;;;1.20;1.03;;;26.00;71.20;;;;;;5033275;28;20489;-82
2022/07/01 00:14:58;;;;;;;1.10;1.00;;;26.00;71.20;;;;;;5032945;28;20514;-91
2022/07/01 00:17:25;;;;;;;1.10;1.00;;;26.00;71.20;;;;;;5033150;28;20447;-82
2022/07/01 00:19:54;;;;;;;1.30;1.20;;;26.00;71.20;;;;;;5032958;28;20846;-82
2022/07/01 00:22:21;;;;;;;1.30;1.20;;;26.00;71.20;;;;;;5033154;28;20930;-82
2022/07/01 00:24:48;;;;;;;1.20;1.10;;;26.00;71.20;;;;;;5033008;28;20501;-82
2022/07/01 00:27:15;;;;;;;1.27;1.17;;;26.00;71.20;;;;;;5032860;28;20561;-82
2022/07/01 00:29:42;;;;;;;1.33;1.23;;;26.00;71.20;;;;;;5033083;28;20481;-83
2022/07/01 00:32:10;;;;;;;1.50;1.10;;;26.00;71.20;;;;;;5032863;28;20521;-82
2022/07/01 00:34:36;;;;;;;1.10;1.00;;;25.90;71.10;;;;;;5032738;28;20885;-82
2022/07/01 00:37:05;;;;;;;1.30;1.20;;;26.00;71.20;;;;;;5033018;28;20474;-82
2022/07/01 00:39:33;;;;;;;1.27;1.00;;;25.90;71.10;;;;;;5032904;28;20969;-83
2022/07/01 00:42:01;;;;;;;1.07;0.97;;;26.00;72.00;;;;;;5032997;28;20470;-82
2022/07/01 00:44:28;;;;;;;1.20;1.10;;;26.00;71.20;;;;;;5032835;28;20442;-82
2022/07/01 00:46:55;;;;;;;1.20;1.10;;;25.90;71.10;;;;;;5032890;28;20434;-82
2022/07/01 00:49:22;;;;;;;1.20;1.10;;;25.90;71.00;;;;;;5032866;28;20525;-82
2022/07/01 00:51:50;;;;;;;1.10;1.00;;;25.90;71.00;;;;;;5032854;28;20529;-82
2022/07/01 00:54:18;;;;;;;1.27;1.17;;;26.00;71.10;;;;;;5032728;28;20537;-81
2022/07/01 00:56:45;;;;;;;1.30;1.20;;;26.00;71.20;;;;;;5032704;28;20514;-82
2022/07/01 00:59:12;;;;;;;1.30;1.20;;;25.90;71.00;;;;;;5032712;28;20601;-82
2022/07/01 01:01:40;;;;;;;1.10;1.00;;;25.90;71.10;;;;;;5032552;28;20942;-82
2022/07/01 01:04:07;;;;;;;1.10;0.93;;;26.00;71.20;;;;;;5032587;28;20474;-82
2022/07/01 01:06:34;;;;;;;1.30;1.20;;;25.90;71.10;;;;;;5032715;28;20453;-82
2022/07/01 01:09:01;;;;;;;1.10;1.00;;;25.90;71.10;;;;;;5032640;28;20490;-82
2022/07/01 01:11:31;;;;;;;1.20;1.10;;;26.00;71.10;;;;;;5032607;28;20454;-82
2022/07/01 01:13:58;;;;;;;1.37;1.27;;;25.90;71.00;;;;;;5034056;28;20462;-82
2022/07/01 01:16:26;;;;;;;1.10;1.00;;;26.00;71.10;;;;;;5036125;28;20521;-82
2022/07/01 01:18:54;;;;;;;1.10;0.97;;;25.90;71.10;;;;;;5036103;28;20461;-82
2022/07/01 01:21:22;;;;;;;1.00;0.90;;;25.90;71.10;;;;;;5036103;28;20849;-82
2022/07/01 01:23:49;;;;;;;1.20;1.10;;;25.90;71.00;;;;;;5036172;28;20439;-82
2022/07/01 01:26:21;;;;;;;1.30;1.20;;;25.90;71.00;;;;;;5035975;28;20538;-83
2022/07/01 01:28:48;;;;;;;1.10;1.00;;;25.90;71.00;;;;;;5036288;28;20442;-82
2022/07/01 01:31:16;;;;;;;1.40;1.30;;;25.90;71.10;;;;;;5036033;28;20450;-82
2022/07/01 01:33:43;;;;;;;1.37;1.27;;;25.90;71.10;;;;;;5035846;28;20531;-80
2022/07/01 01:36:10;;;;;;;1.40;1.17;;;25.90;71.10;;;;;;5035804;28;20482;-82
2022/07/01 01:38:38;;;;;;;1.40;1.30;;;25.90;71.10;;;;;;5035467;28;20486;-82
2022/07/01 01:41:05;;;;;;;1.10;1.00;;;25.90;71.10;;;;;;5035936;28;20439;-82
2022/07/01 01:43:34;;;;;;;1.17;1.07;;;25.90;71.10;;;;;;5035891;28;20466;-82
2022/07/01 01:46:02;;;;;;;1.20;1.10;;;25.90;71.10;;;;;;5035778;28;20441;-82
2022/07/01 01:48:29;;;;;;;1.83;1.60;;;25.90;71.10;;;;;;5035744;28;20442;-82
2022/07/01 01:50:56;;;;;;;1.17;1.07;;;25.90;71.90;;;;;;5035552;28;20431;-82
2022/07/01 01:53:24;;;;;;;1.30;1.10;;;25.90;71.00;;;;;;5035951;28;20934;-81
2022/07/01 01:55:53;;;;;;;1.20;1.10;;;25.90;71.00;;;;;;5035513;28;20493;-81
2022/07/01 01:58:20;;;;;;;1.27;1.17;;;25.90;71.00;;;;;;5035551;28;20922;-90
2022/07/01 02:00:46;;;;;;;1.27;1.17;;;25.90;71.00;;;;;;5035660;28;21032;-81
2022/07/01 02:03:13;;;;;;;1.10;1.00;;;25.90;71.00;;;;;;5035497;28;20534;-81
2022/07/01 02:05:40;;;;;;;1.30;1.20;;;25.90;71.00;;;;;;5035297;28;20537;-82
2022/07/01 02:08:07;;;;;;;1.20;1.10;;;25.90;71.00;;;;;;5035320;28;20996;-82
2022/07/01 02:10:34;;;;;;;1.20;1.10;;;25.90;71.00;;;;;;5035227;28;20445;-83
2022/07/01 02:13:03;;;;;;;1.10;1.00;;;25.90;71.00;;;;;;5035171;28;20536;-83
2022/07/01 02:15:30;;;;;;;1.10;1.00;;;25.90;71.00;;;;;;5035183;28;20574;-83
2022/07/01 02:17:57;;;;;;;1.20;1.10;;;25.90;71.00;;;;;;5035030;28;20446;-82
2022/07/01 02:20:24;;;;;;;1.20;1.10;;;25.90;71.00;;;;;;5035361;28;20500;-82
2022/07/01 02:22:52;;;;;;;1.07;0.97;;;25.90;71.00;;;;;;5035078;28;20449;-82
2022/07/01 02:25:20;;;;;;;1.17;1.07;;;25.90;71.00;;;;;;5034163;28;20454;-82
2022/07/01 02:27:47;;;;;;;1.10;1.00;;;25.90;71.00;;;;;;5034915;28;20478;-82
2022/07/01 02:30:15;;;;;;;1.10;1.00;;;25.90;71.00;;;;;;5035021;28;20475;-82
2022/07/01 02:32:42;;;;;;;1.20;1.10;;;25.90;70.90;;;;;;5034911;28;20514;-82
2022/07/01 02:35:10;;;;;;;1.10;1.00;;;25.90;71.00;;;;;;5034976;28;20443;-82
2022/07/01 02:37:37;;;;;;;1.13;1.03;;;25.90;71.00;;;;;;5034701;28;20439;-82
2022/07/01 02:40:04;;;;;;;1.00;0.90;;;25.90;70.90;;;;;;5035018;28;20787;-82
2022/07/01 02:42:34;;;;;;;1.00;0.90;;;25.90;70.90;;;;;;5034730;28;20534;-82
2022/07/01 02:45:02;;;;;;;1.23;1.00;;;25.90;70.90;;;;;;5034591;28;20536;-82
2022/07/01 02:47:33;;;;;;;1.00;0.80;;;25.90;71.80;;;;;;5034620;28;20442;-82
2022/07/01 02:50:01;;;;;;;1.23;1.13;;;25.90;70.90;;;;;;5034875;28;20439;-82
2022/07/01 02:52:28;;;;;;;1.20;1.07;;;25.80;70.90;;;;;;5034482;28;20450;-82
2022/07/01 02:54:55;;;;;;;1.10;1.00;;;25.90;70.90;;;;;;5034869;28;20534;-82
2022/07/01 02:57:22;;;;;;;1.17;1.07;;;25.80;70.90;;;;;;5034395;28;20492;-82
2022/07/01 02:59:50;;;;;;;1.10;1.00;;;25.90;70.90;;;;;;5034282;28;20439;-82
2022/07/01 03:02:18;;;;;;;1.20;1.10;;;25.90;71.80;;;;;;5034317;28;20438;-82
2022/07/01 03:04:47;;;;;;;1.27;1.17;;;25.90;71.80;;;;;;5034210;28;20435;-81
2022/07/01 03:07:14;;;;;;;1.30;1.20;;;25.90;71.80;;;;;;5034286;28;20517;-81
2022/07/01 03:09:41;;;;;;;1.10;1.00;;;25.80;70.90;;;;;;5034069;28;20462;-81
2022/07/01 03:14:49;;;;;;;1.20;1.10;;;25.80;70.80;;;;;;5033569;28;20434;-81
2022/07/01 03:17:18;;;;;;;1.20;1.00;;;25.80;70.80;;;;;;5034016;28;20588;-81
2022/07/01 03:19:46;;;;;;;1.00;0.90;;;25.80;70.80;;;;;;5034073;28;20522;-84
2022/07/01 03:22:13;;;;;;;1.00;0.90;;;25.90;70.90;;;;;;5034080;28;20887;-81
2022/07/01 03:24:40;;;;;;;1.10;1.00;;;25.80;70.80;;;;;;5033885;28;20875;-81
2022/07/01 03:27:07;;;;;;;1.10;1.00;;;25.80;70.80;;;;;;5033625;28;20502;-81
2022/07/01 03:29:34;;;;;;;1.00;0.90;;;25.90;70.90;;;;;;5033792;28;20453;-82
2022/07/01 03:32:01;;;;;;;1.13;1.03;;;25.80;70.80;;;;;;5033790;28;20496;-82
2022/07/01 03:34:28;;;;;;;1.20;1.10;;;25.80;70.80;;;;;;5033660;28;20518;-82
2022/07/01 03:36:56;;;;;;;1.20;1.10;;;25.90;70.90;;;;;;5033680;28;20815;-81
2022/07/01 03:39:23;;;;;;;1.20;1.10;;;25.80;70.80;;;;;;5033540;28;20490;-91
2022/07/01 03:41:50;;;;;;;1.00;0.90;;;25.90;70.90;;;;;;5033725;28;21009;-82
2022/07/01 03:44:17;;;;;;;1.20;1.10;;;25.90;70.90;;;;;;5033623;28;20877;-85
2022/07/01 03:46:44;;;;;;;1.00;0.90;;;25.90;70.90;;;;;;5033594;28;20457;-82
2022/07/01 03:49:11;;;;;;;1.20;1.10;;;25.80;71.60;;;;;;5033575;28;20466;-82
2022/07/01 03:51:38;;;;;;;1.07;0.97;;;25.80;70.80;;;;;;5033490;28;20980;-82
2022/07/01 03:56:50;;;;;;;1.10;0.90;;;25.80;70.70;;;;;;5033421;28;21023;-81
2022/07/01 03:59:17;;;;;;;1.20;1.10;;;25.80;70.80;;;;;;5033256;28;20930;-82
2022/07/01 04:01:44;;;;;;;1.10;1.00;;;25.80;70.80;;;;;;5033348;28;20934;-81
2022/07/01 04:04:11;;;;;;;1.20;1.10;;;25.80;70.70;;;;;;5033208;28;20510;-81
2022/07/01 04:06:38;;;;;;;1.20;1.10;;;25.80;70.70;;;;;;5033262;28;20862;-82
2022/07/01 04:09:06;;;;;;;1.30;1.10;;;25.80;70.70;;;;;;5033133;28;20561;-91
2022/07/01 04:11:34;;;;;;;1.10;1.00;;;25.90;70.80;;;;;;5033353;28;20529;-82
2022/07/01 04:14:01;;;;;;;1.10;1.00;;;25.80;70.70;;;;;;5033141;28;20980;-81
2022/07/01 04:16:28;;;;;;;1.20;1.10;;;25.80;70.70;;;;;;5033229;28;20490;-82
2022/07/01 04:18:55;;;;;;;1.20;1.10;;;25.80;70.70;;;;;;5032959;28;20434;-81
2022/07/01 04:24:08;;;;;;;1.20;1.03;;;25.80;70.70;;;;;;5033249;28;20887;-81
2022/07/01 04:26:36;;;;;;;1.20;1.10;;;25.80;70.70;;;;;;5033083;28;20446;-81
2022/07/01 04:29:03;;;;;;;1.10;1.00;;;25.80;70.70;;;;;;5033028;28;20479;-82
2022/07/01 04:31:31;;;;;;;1.03;0.93;;;25.80;70.70;;;;;;5033048;28;20438;-81
2022/07/01 04:33:58;;;;;;;1.30;1.20;;;25.80;70.70;;;;;;5033327;28;20500;-82
2022/07/01 04:36:24;;;;;;;1.17;1.07;;;25.80;70.70;;;;;;5032869;28;20569;-81
2022/07/01 04:38:51;;;;;;;1.07;0.97;;;25.80;70.70;;;;;;5032804;28;20549;-82
2022/07/01 04:44:06;;;;;;;1.03;0.90;;;25.80;70.70;;;;;;4999251;28;20427;-82
2022/07/01 04:46:33;;;;;;;1.10;1.00;;;25.80;70.70;;;;;;5032878;28;20500;-82
2022/07/01 04:49:00;;;;;;;1.10;1.00;;;25.80;70.70;;;;;;5034323;28;20529;-84
2022/07/01 04:51:28;;;;;;;1.20;1.00;;;25.80;70.70;;;;;;5036989;28;20517;-82
2022/07/01 04:53:55;;;;;;;1.47;1.30;;;25.80;70.70;;;;;;5036796;28;20836;-82
2022/07/01 04:56:23;;;;;;;1.00;0.90;;;25.80;70.60;;;;;;5036600;28;20561;-82
2022/07/01 04:58:50;;;;;;;1.20;1.10;;;25.80;70.60;;;;;;5036464;28;20930;-83
2022/07/01 05:01:17;;;;;;;1.10;1.00;;;25.80;70.60;;;;;;5036619;28;20861;-82
2022/07/01 05:03:44;;;;;;;1.30;1.20;;;25.80;70.60;;;;;;5036569;28;20446;-82
2022/07/01 05:06:11;;;;;;;1.10;1.00;;;25.80;70.60;;;;;;5036407;28;20442;-82
2022/07/01 05:08:38;;;;;;;1.20;1.10;;;25.80;70.60;;;;;;5036300;28;20549;-82
2022/07/01 05:11:07;;;;;;;1.40;1.30;;;25.80;71.50;;;;;;5036477;28;20537;-82
2022/07/01 05:13:35;;;;;;;1.00;0.90;;;25.80;70.60;;;;;;5036526;28;20855;-82
2022/07/01 05:16:02;;;;;;;1.10;1.00;;;25.80;70.60;;;;;;5036224;28;20445;-81
2022/07/01 05:23:58;;;;;;;1.10;1.00;;;25.80;70.70;;;;;;5036269;28;20966;-82
2022/07/01 05:26:25;;;;;;;1.30;1.20;;;25.80;70.70;;;;;;5035987;28;20441;-82
2022/07/01 05:28:54;;;;;;;1.20;1.10;;;25.80;70.60;;;;;;5036284;28;20435;-82
2022/07/01 05:31:22;;;;;;;1.07;0.93;;;25.80;70.60;;;;;;5036077;28;20439;-83
2022/07/01 05:33:49;;;;;;;1.23;1.13;;;25.80;70.60;;;;;;5036254;28;20537;-83
2022/07/01 05:36:16;;;;;;;1.03;0.93;;;25.80;70.60;;;;;;5035838;28;20803;-82
2022/07/01 05:38:43;;;;;;;1.10;0.90;;;25.80;70.60;;;;;;5035985;28;20549;-82
2022/07/01 05:41:10;;;;;;;1.00;0.83;;;25.80;70.60;;;;;;5035833;28;20442;-83
2022/07/01 05:43:36;;;;;;;1.30;1.20;;;25.80;70.50;;;;;;5035759;28;20438;-82
2022/07/01 05:46:05;;;;;;;1.47;1.20;;;25.80;70.50;;;;;;5035836;28;20479;-82
2022/07/01 05:48:32;;;;;;;1.33;1.23;;;25.80;70.60;;;;;;5036178;28;20809;-82
2022/07/01 05:50:58;;;;;;;1.20;1.10;;;25.80;70.50;;;;;;5035690;28;20956;-82
2022/07/01 05:53:25;;;;;;;1.40;1.30;;;25.80;70.50;;;;;;5035663;28;20856;-83
2022/07/01 05:55:52;;;;;;;1.30;1.20;;;25.80;70.50;;;;;;5035828;28;20450;-83
2022/07/01 05:58:20;;;;;;;1.20;1.10;;;25.80;70.50;;;;;;5035582;28;20488;-83
2022/07/01 06:00:47;;;;;;;1.13;1.03;;;25.80;70.50;;;;;;5034383;28;20435;-82
2022/07/01 06:03:16;;;;;;;1.10;1.00;;;25.80;70.50;;;;;;5035505;28;20475;-83
2022/07/01 06:05:43;;;;;;;1.20;1.10;;;25.80;70.50;;;;;;5035231;28;20517;-83
2022/07/01 06:08:10;;;;;;;1.00;0.83;;;25.80;70.50;;;;;;5035284;28;20533;-83
2022/07/01 06:10:37;;;;;;;1.30;1.20;;;25.80;70.50;;;;;;5035337;28;20526;-83
2022/07/01 06:13:05;;;;;;;1.20;1.10;;;25.80;70.50;;;;;;5035467;28;20431;-83
2022/07/01 06:15:32;;;;;;;1.20;1.10;;;25.80;70.50;;;;;;5035901;28;20443;-82
2022/07/01 06:17:59;;;;;;;1.00;0.90;;;25.80;70.50;;;;;;5035702;28;20913;-83
2022/07/01 06:20:28;;;;;;;1.00;0.90;;;25.80;70.50;;;;;;5035253;28;20525;-83
2022/07/01 06:22:55;;;;;;;1.10;1.00;;;25.80;70.50;;;;;;5035068;28;20470;-82
2022/07/01 06:25:22;;;;;;;1.20;1.00;;;25.80;70.50;;;;;;5035140;28;20474;-83
2022/07/01 06:27:48;;;;;;;1.17;1.07;;;25.80;71.30;;;;;;5034798;28;20982;-83
2022/07/01 06:30:15;;;;;;;1.10;1.00;;;25.80;70.50;;;;;;5035051;28;20525;-83
2022/07/01 06:32:42;;;;;;;1.37;1.27;;;25.90;70.60;;;;;;5035203;28;20953;-83
2022/07/01 06:35:09;;;;;;;1.50;1.37;;;25.80;70.50;;;;;;5034758;28;20435;-83
2022/07/01 06:37:38;;;;;;;1.27;1.17;;;25.80;70.50;;;;;;5034931;28;20494;-83
2022/07/01 06:40:07;;;;;;;1.10;0.90;;;25.90;70.60;;;;;;5034928;28;20533;-83
2022/07/01 06:42:34;;;;;;;1.10;1.00;;;25.80;70.50;;;;;;5034719;28;20530;-92
2022/07/01 06:45:02;;;;;;;1.20;1.10;;;25.90;70.60;;;;;;5034973;28;20474;-83
2022/07/01 06:47:29;;;;;;;1.27;1.17;;;25.80;70.50;;;;;;5034438;28;20465;-91
2022/07/01 06:49:55;;;;;;;1.50;1.40;;;25.90;70.50;;;;;;5034515;28;20802;-83
2022/07/01 06:52:23;;;;;;;1.20;1.10;;;25.90;70.50;;;;;;5034818;28;20529;-84
2022/07/01 06:54:51;;;;;;;1.10;1.00;;;25.90;70.60;;;;;;5034578;28;20443;-83
2022/07/01 06:57:20;;;;;;;1.10;1.00;;;25.90;70.60;;;;;;5034357;28;20589;-83
2022/07/01 06:59:48;;;;;;;1.40;1.03;;;25.90;70.50;;;;;;5034277;28;20445;-83
2022/07/01 07:02:15;;;;;;;1.23;1.13;;;25.90;70.60;;;;;;5034395;28;20445;-83
2022/07/01 07:04:42;;;;;;;1.33;1.23;;;25.90;71.40;;;;;;5034312;28;20523;-83
2022/07/01 07:07:09;;;;;;;1.50;1.20;;;25.90;70.60;;;;;;5034344;28;20860;-83
2022/07/01 07:09:35;;;;;;;1.20;1.10;;;25.90;70.60;;;;;;5034440;28;20439;-83
2022/07/01 07:12:04;;;;;;;1.17;1.07;;;25.90;70.60;;;;;;5033702;28;20518;-83
2022/07/01 07:14:31;;;;;;;1.07;0.97;;;25.90;70.60;;;;;;5034116;28;20513;-82
2022/07/01 07:16:58;;;;;;;1.10;1.00;;;25.90;70.60;;;;;;5033956;28;21068;-83
2022/07/01 07:19:25;;;;;;;1.00;0.90;;;25.90;70.60;;;;;;5034299;28;20526;-83
2022/07/01 07:21:52;;;;;;;1.17;1.07;;;25.90;70.60;;;;;;5034198;28;20529;-83
2022/07/01 07:24:18;;;;;;;1.23;1.10;;;25.90;70.60;;;;;;5033843;28;20471;-83
2022/07/01 07:26:45;;;;;;;1.30;1.20;;;25.90;70.50;;;;;;5033766;28;20478;-82
2022/07/01 07:29:13;;;;;;;1.10;1.00;;;25.90;70.60;;;;;;5033870;28;20519;-83
2022/07/01 07:31:40;;;;;;;1.50;1.07;;;25.90;70.50;;;;;;5033785;28;20534;-83
2022/07/01 07:34:07;;;;;;;1.30;1.20;;;25.90;70.50;;;;;;5033771;28;20474;-83
2022/07/01 07:36:34;;;;;;;1.30;1.20;;;25.90;70.50;;;;;;5033919;28;20538;-83
2022/07/01 07:39:01;;;;;;;1.03;0.93;;;25.90;70.60;;;;;;5033542;28;20563;-82
2022/07/01 07:41:28;;;;;;;1.40;1.30;;;25.90;70.50;;;;;;5033855;28;20530;-82
2022/07/01 07:43:54;;;;;;;1.97;1.23;;;25.90;70.50;;;;;;5033611;28;20533;-83
2022/07/01 07:46:23;;;;;;;1.37;1.27;;;25.90;70.60;;;;;;5033577;28;20530;-82
2022/07/01 07:48:49;;;;;;;1.23;1.13;;;25.90;70.50;;;;;;5033702;28;20530;-83
2022/07/01 07:51:18;;;;;;;1.60;1.50;;;25.90;70.50;;;;;;5033408;28;20465;-82
2022/07/01 07:53:45;;;;;;;1.27;1.17;;;25.90;70.50;;;;;;5035161;28;20446;-82
2022/07/01 07:56:12;;;;;;;1.20;1.10;;;25.90;70.50;;;;;;5035687;28;20443;-83
2022/07/01 07:58:41;;;;;;;1.30;1.20;;;25.90;70.60;;;;;;5035403;28;20566;-82
2022/07/01 08:01:09;;;;;;;1.30;1.20;;;25.90;70.60;;;;;;5035223;28;20496;-91
2022/07/01 08:03:38;;;;;;;1.27;1.17;;;25.90;70.60;;;;;;5033668;28;20443;-82
2022/07/01 08:06:05;;;;;;;1.37;1.27;;;25.90;70.60;;;;;;5033518;28;20930;-83
2022/07/01 08:08:32;;;;;;;1.30;1.20;;;25.90;70.50;;;;;;5033103;28;20469;-82
2022/07/01 08:11:00;;;;;;;1.20;1.10;;;25.90;70.60;;;;;;5033247;28;20435;-82
2022/07/01 08:13:27;;;;;;;1.17;1.07;;;25.90;70.50;;;;;;5033270;28;20521;-82
2022/07/01 08:15:53;;;;;;;1.30;1.20;;;26.00;70.50;;;;;;5033358;28;20438;-82
2022/07/01 08:18:20;;;;;;;1.33;1.23;;;25.90;70.40;;;;;;5033110;28;20573;-83
2022/07/01 08:20:52;;;;;;;1.30;1.20;;;25.90;70.40;;;;;;5033116;28;20533;-83
2022/07/01 08:23:19;;;;;;;1.27;1.17;;;25.90;70.30;;;;;;5032893;28;20442;-90
2022/07/01 08:25:46;;;;;;;1.20;1.10;;;26.00;70.40;;;;;;5033189;28;20457;-82
2022/07/01 08:28:13;;;;;;;1.13;1.03;;;25.90;70.40;;;;;;5032776;28;20475;-82
2022/07/01 08:30:40;;;;;;;1.30;1.20;;;25.90;70.40;;;;;;5033287;28;20449;-82
2022/07/01 08:33:07;;;;;;;1.53;1.20;;;25.90;70.40;;;;;;5033147;28;20486;-84
2022/07/01 08:35:34;;;;;;;1.30;1.20;;;25.90;70.40;;;;;;5033569;28;20443;-84
2022/07/01 08:38:02;;;;;;;1.10;1.00;;;26.00;70.40;;;;;;5035205;28;20581;-83
2022/07/01 08:40:30;;;;;;;1.30;1.20;;;25.90;70.40;;;;;;5033221;28;20534;-83
2022/07/01 08:42:58;;;;;;;1.10;1.00;;;25.90;70.40;;;;;;5033161;28;20529;-92
2022/07/01 08:45:27;;;;;;;1.53;1.30;;;25.90;70.40;;;;;;5033001;28;20439;-83
2022/07/01 08:47:57;;;;;;;1.47;1.37;;;25.90;70.40;;;;;;5032907;28;20445;-81
2022/07/01 08:50:25;;;;;;;1.10;1.00;;;25.90;71.30;;;;;;5033074;28;20799;-82
2022/07/01 08:52:53;;;;;;;1.30;1.20;;;25.90;71.30;;;;;;5032756;28;20450;-82
2022/07/01 08:55:22;;;;;;;1.67;1.57;;;25.90;70.40;;;;;;5033006;28;20465;-82
2022/07/01 08:57:49;;;;;;;1.47;1.37;;;25.90;70.40;;;;;;5032673;28;20577;-82
2022/07/01 09:00:17;;;;;;;1.40;1.30;;;25.90;71.20;;;;;;5032603;28;20455;-85
2022/07/01 09:02:52;;;;;;;1.70;1.60;;;26.00;70.40;;;;;;5032647;28;20447;-82
2022/07/01 09:05:19;;;;;;;1.40;1.30;;;26.00;70.40;;;;;;5032743;28;20949;-82
2022/07/01 09:07:47;;;;;;;1.37;1.27;;;26.00;70.40;;;;;;5032541;28;20463;-82
2022/07/01 09:10:16;;;;;;;1.40;1.30;;;26.00;70.40;;;;;;5032927;28;20541;-82
2022/07/01 09:12:45;;;;;;;1.40;1.30;;;26.00;70.50;;;;;;5032768;28;20446;-83
2022/07/01 09:15:24;;;;;;;1.40;1.30;;;26.00;70.40;;;;;;5032659;28;20537;-82
2022/07/01 09:17:51;;;;;;;1.30;1.20;;;26.00;70.40;;;;;;5032402;28;20531;-82
2022/07/01 09:20:29;;;;;;;1.30;1.20;;;26.00;70.50;;;;;;5032528;28;20442;-90
2022/07/01 09:23:01;;;;;;;1.20;1.10;;;26.00;70.50;;;;;;5033025;28;20438;-82
2022/07/01 09:25:32;;;;;;;1.40;1.30;;;26.00;70.40;;;;;;5032864;28;20866;-82
2022/07/01 09:28:09;;;;;;;1.30;1.20;;;26.00;70.40;;;;;;5032495;28;20565;-82
2022/07/01 09:30:37;;;;;;;1.20;1.10;;;26.00;70.40;;;;;;5032733;28;20511;-83
2022/07/01 09:33:12;;;;;;;1.20;1.10;;;26.00;70.40;;;;;;5032440;28;20930;-83
2022/07/01 09:35:39;;;;;;;1.60;1.50;;;26.00;70.50;;;;;;5034905;28;20867;-91
2022/07/01 09:38:08;;;;;;;1.83;1.40;;;26.00;70.50;;;;;;5035704;28;20981;-83
2022/07/01 09:40:49;;;;;;;1.27;1.17;;;26.00;70.50;;;;;;5036101;28;20439;-83
2022/07/01 09:43:19;;;;;;;1.70;1.33;;;26.00;70.40;;;;;;5035836;28;20442;-82
2022/07/01 09:45:58;;;;;;;1.27;1.17;;;25.90;70.50;;;;;;5035981;28;20472;-82
2022/07/01 09:48:28;;;;;;;1.60;1.50;;;26.00;70.40;;;;;;5035963;28;20845;-90
2022/07/01 09:50:55;;;;;;;1.30;1.20;;;26.00;70.50;;;;;;5035775;28;20437;-83
2022/07/01 09:53:22;;;;;;;1.73;1.63;;;26.00;70.50;;;;;;5035503;28;20481;-82
2022/07/01 09:55:49;;;;;;;1.33;1.23;;;25.90;70.40;;;;;;5035649;28;20438;-83
2022/07/01 09:58:16;;;;;;;1.33;1.23;;;26.00;70.40;;;;;;5035477;28;20482;-83
2022/07/01 10:00:45;;;;;;;1.17;1.07;;;26.00;70.50;;;;;;5035848;28;20514;-83
2022/07/01 10:03:12;;;;;;;1.27;1.17;;;26.00;70.50;;;;;;5035630;28;21029;-83
2022/07/01 10:05:44;;;;;;;1.50;1.40;;;26.00;70.50;;;;;;5035399;28;20442;-83
2022/07/01 10:08:37;;;;;;;1.17;1.07;;;26.00;70.50;;;;;;5035582;28;20461;-83
2022/07/01 10:11:24;;;;;;;1.57;1.47;;;26.00;70.40;;;;;;5035809;28;20489;-91
2022/07/01 10:13:52;;;;;;;1.80;1.70;;;26.00;70.40;;;;;;5035325;28;20457;-83
2022/07/01 10:16:21;;;;;;;1.47;1.37;;;26.00;70.40;;;;;;5035268;28;20989;-83
2022/07/01 10:18:48;;;;;;;1.40;1.30;;;26.00;70.40;;;;;;5035048;28;20497;-83
2022/07/01 10:21:28;;;;;;;1.30;1.20;;;26.00;70.40;;;;;;5035389;28;20443;-83
2022/07/01 10:24:12;;;;;;;1.30;1.20;;;26.00;70.30;;;;;;5035151;28;20839;-83
2022/07/01 10:26:39;;;;;;;1.60;1.50;;;26.00;70.30;;;;;;5035213;28;20517;-83
2022/07/01 10:29:07;;;;;;;1.30;1.20;;;26.00;70.40;;;;;;5034990;28;20858;-83
2022/07/01 10:31:38;;;;;;;1.40;1.30;;;26.00;70.40;;;;;;5035048;28;21011;-91
2022/07/01 10:34:05;;;;;;;1.20;1.10;;;26.00;70.40;;;;;;5035107;28;20439;-83
2022/07/01 10:36:33;;;;;;;1.30;1.20;;;26.00;71.20;;;;;;5034980;28;20442;-83
2022/07/01 10:39:13;;;;;;;1.50;1.23;;;26.00;70.30;;;;;;5034804;28;20525;-83
2022/07/01 10:41:42;;;;;;;1.40;1.30;;;26.00;70.20;;;;;;5035120;28;20937;-83
2022/07/01 10:44:11;;;;;;;1.30;1.20;;;26.00;70.30;;;;;;5034987;28;20434;-83
2022/07/01 10:46:44;;;;;;;1.50;1.40;;;26.00;70.30;;;;;;5034242;28;20566;-83
2022/07/01 10:49:13;;;;;;;1.40;1.30;;;26.00;70.20;;;;;;5034925;28;20944;-90
2022/07/01 10:51:47;;;;;;;1.40;1.30;;;26.00;70.30;;;;;;5034838;28;20438;-83
2022/07/01 10:54:14;;;;;;;1.43;1.30;;;26.00;70.30;;;;;;5035028;28;20770;-84
2022/07/01 10:56:42;;;;;;;1.40;1.30;;;26.00;70.20;;;;;;5034882;28;20442;-84
2022/07/01 10:59:18;;;;;;;1.23;1.13;;;26.10;70.30;;;;;;5034398;28;20518;-84
2022/07/01 11:01:47;;;;;;;1.20;1.10;;;26.10;70.20;;;;;;5034953;28;20517;-83
2022/07/01 11:04:14;;;;;;;1.43;1.33;;;26.10;70.10;;;;;;5034999;28;20526;-84
2022/07/01 11:06:42;;;;;;;1.30;1.20;;;26.00;70.00;;;;;;5034477;28;20438;-83
2022/07/01 11:09:13;;;;;;;1.80;1.20;;;26.10;70.10;;;;;;5034192;28;20454;-83
2022/07/01 11:11:40;;;;;;;1.30;1.20;;;26.10;70.10;;;;;;5034447;28;20529;-84
2022/07/01 11:14:07;;;;;;;1.30;1.20;;;26.10;70.00;;;;;;5034158;28;20451;-83
2022/07/01 11:16:35;;;;;;;1.20;1.10;;;26.10;70.00;;;;;;5034195;28;20799;-83
2022/07/01 11:19:06;;;;;;;1.10;1.00;;;26.10;70.00;;;;;;5033789;28;20492;-91
2022/07/01 11:21:33;;;;;;;1.53;1.43;;;26.10;69.90;;;;;;5034508;28;20804;-84
2022/07/01 11:24:00;;;;;;;1.20;1.10;;;26.10;70.10;;;;;;5034406;28;20918;-83
2022/07/01 11:26:27;;;;;;;1.30;1.20;;;26.10;69.90;;;;;;5034205;28;20826;-85
2022/07/01 11:28:54;;;;;;;1.17;1.07;;;26.10;69.70;;;;;;5033977;28;20442;-84
2022/07/01 11:31:34;;;;;;;1.20;1.10;;;26.10;69.60;;;;;;5035230;28;20533;-91
2022/07/01 11:34:06;;;;;;;1.10;1.00;;;26.20;69.60;;;;;;5034423;28;20536;-83
2022/07/01 11:39:24;;;;;;;1.10;1.00;;;26.10;69.50;;;;;;5033774;28;20537;-84
2022/07/01 11:41:55;;;;;;;1.30;1.20;;;26.10;69.60;;;;;;5033705;28;21003;-84
2022/07/01 11:44:30;;;;;;;1.20;1.10;;;26.10;69.60;;;;;;5033480;28;20991;-83
2022/07/01 11:46:57;;;;;;;1.23;1.13;;;26.20;69.70;;;;;;5033697;28;20436;-82
2022/07/01 11:49:25;;;;;;;1.10;1.00;;;26.20;69.50;;;;;;5033514;28;20981;-84
2022/07/01 11:51:58;;;;;;;1.63;1.53;;;26.20;69.50;;;;;;5033841;28;20541;-85
2022/07/01 11:54:25;;;;;;;1.27;1.17;;;26.20;69.40;;;;;;5033644;28;20485;-85
2022/07/01 11:56:52;;;;;;;1.10;0.90;;;26.20;69.40;;;;;;5033491;28;20469;-84
2022/07/01 11:59:20;;;;;;;1.40;1.30;;;26.20;69.40;;;;;;5032728;28;20486;-84
2022/07/01 12:01:53;;;;;;;1.20;1.10;;;26.20;69.30;;;;;;5033467;28;20446;-85
2022/07/01 12:04:21;;;;;;;1.53;1.43;;;26.30;69.20;;;;;;5033458;28;20438;-84
2022/07/01 12:06:50;;;;;;;1.20;1.03;;;26.20;69.30;;;;;;5033159;28;21018;-84
2022/07/01 12:09:19;;;;;;;1.20;1.10;;;26.20;69.30;;;;;;5033520;28;20465;-83
2022/07/01 12:11:47;;;;;;;1.10;1.00;;;26.20;69.30;;;;;;5033437;28;20450;-91
2022/07/01 12:14:20;;;;;;;1.10;1.00;;;26.30;69.20;;;;;;5033727;28;20521;-84
2022/07/01 12:16:51;;;;;;;1.20;1.00;;;26.30;69.30;;;;;;5033593;28;20441;-84
2022/07/01 12:19:18;;;;;;;1.23;1.13;;;26.20;69.30;;;;;;5033707;28;20581;-83
2022/07/01 12:21:52;;;;;;;1.00;0.90;;;26.30;69.30;;;;;;5033208;28;20541;-83
2022/07/01 12:24:21;;;;;;;1.30;1.20;;;26.30;69.30;;;;;;5033892;28;20517;-84
2022/07/01 12:26:50;;;;;;;1.20;1.00;;;26.20;69.30;;;;;;5033209;28;20474;-83
2022/07/01 12:29:18;;;;;;;1.40;1.10;;;26.30;69.40;;;;;;5033399;28;21013;-83
2022/07/01 12:31:54;;;;;;;1.13;1.03;;;26.20;69.30;;;;;;5033488;28;20537;-82
2022/07/01 12:34:21;;;;;;;1.10;1.00;;;26.20;69.40;;;;;;5033130;28;20521;-82
2022/07/01 12:36:51;;;;;;;1.10;1.00;;;26.20;69.40;;;;;;5033086;28;20533;-83
2022/07/01 12:39:19;;;;;;;1.63;1.27;;;26.20;70.20;;;;;;5032812;28;20921;-83
2022/07/01 12:41:52;;;;;;;1.27;1.03;;;26.20;69.20;;;;;;5033433;28;20539;-83
2022/07/01 12:44:23;;;;;;;1.20;1.10;;;26.30;69.30;;;;;;5035268;28;20489;-83
2022/07/01 12:46:50;;;;;;;1.10;1.00;;;26.30;69.40;;;;;;5033744;28;20465;-83
2022/07/01 12:49:22;;;;;;;1.20;1.00;;;26.30;69.30;;;;;;5033902;28;20442;-84
2022/07/01 12:51:52;;;;;;;1.00;0.83;;;26.30;69.20;;;;;;5032784;28;20475;-84
2022/07/01 12:54:32;;;;;;;1.10;0.90;;;26.30;69.40;;;;;;5032859;28;20500;-84
2022/07/01 12:57:00;;;;;;;1.20;1.10;;;26.30;69.30;;;;;;5032815;28;20442;-83
2022/07/01 12:59:27;;;;;;;1.10;1.00;;;26.20;69.40;;;;;;5032893;28;20491;-84
2022/07/01 13:01:54;;;;;;;1.40;1.00;;;26.20;69.30;;;;;;5032912;28;20474;-84
2022/07/01 13:04:25;;;;;;;1.00;0.90;;;26.20;69.20;;;;;;5032902;28;20443;-83
2022/07/01 13:06:53;;;;;;;1.20;1.00;;;26.30;69.20;;;;;;5032755;28;20534;-83
2022/07/01 13:09:21;;;;;;;1.10;1.00;;;26.30;69.10;;;;;;5032929;28;20466;-82
2022/07/01 13:11:48;;;;;;;1.00;0.80;;;26.30;69.00;;;;;;5036415;28;20431;-83